Time;durP1;ratioP1;P1;durP2;ratioP2;P2;SDS_P1;SDS_P2;PMS_P1;PMS_P2;Temp;Humidity;BMP_temperature;BMP_pressure;BME280_temperature;BME280_humidity;BME280_pressure;Samples;Min_cycle;Max_cycle;Signal;HPM_P1;HPM_P2
2022/07/10 00:03:28;;;;;;;5.88;4.75;;;;;;;;;;10246703;28;20092;-65
2022/07/10 00:08:27;;;;;;;6.55;5.10;;;;;;;;;;10246346;28;20467;-66
2022/07/10 00:13:26;;;;;;;7.97;4.40;;;;;;;;;;10246283;28;20524;-64
2022/07/10 00:18:25;;;;;;;12.30;10.73;;;;;;;;;;10246279;28;20064;-65
2022/07/10 00:23:23;;;;;;;5.63;4.63;;;;;;;;;;10245734;28;20076;-65
2022/07/10 00:28:23;;;;;;;8.20;5.50;;;;;;;;;;10245949;28;20073;-63
2022/07/10 00:33:22;;;;;;;4.75;4.35;;;;;;;;;;10246227;28;20077;-65
2022/07/10 00:38:21;;;;;;;5.10;4.60;;;;;;;;;;10243639;28;20045;-65
2022/07/10 00:43:19;;;;;;;5.95;4.93;;;;;;;;;;10248270;28;20045;-65
2022/07/10 00:48:17;;;;;;;5.90;4.85;;;;;;;;;;10253615;28;20083;-65
2022/07/10 00:53:17;;;;;;;5.13;4.68;;;;;;;;;;10253195;28;20069;-65
2022/07/10 00:58:15;;;;;;;6.85;4.53;;;;;;;;;;10249420;28;20075;-65
2022/07/10 01:03:14;;;;;;;6.63;6.10;;;;;;;;;;10243558;28;20080;-64
2022/07/10 01:08:12;;;;;;;6.53;5.45;;;;;;;;;;10257065;28;20084;-65
2022/07/10 01:13:11;;;;;;;8.05;5.97;;;;;;;;;;10252841;28;20077;-64
2022/07/10 01:18:10;;;;;;;6.88;6.18;;;;;;;;;;10254451;28;20076;-65
2022/07/10 01:23:09;;;;;;;7.20;6.60;;;;;;;;;;10246798;28;20084;-65
2022/07/10 01:28:08;;;;;;;6.90;6.22;;;;;;;;;;10243337;28;20522;-64
2022/07/10 01:33:06;;;;;;;7.07;6.18;;;;;;;;;;10233246;28;20077;-65
2022/07/10 01:38:04;;;;;;;6.72;6.05;;;;;;;;;;10240780;28;20069;-65
2022/07/10 01:43:04;;;;;;;8.00;6.40;;;;;;;;;;10245627;28;20454;-65
2022/07/10 01:48:03;;;;;;;6.90;6.22;;;;;;;;;;10252831;28;20174;-68
2022/07/10 01:53:01;;;;;;;7.07;6.20;;;;;;;;;;10246209;28;20048;-67
2022/07/10 01:57:59;;;;;;;8.48;6.95;;;;;;;;;;10251444;28;20501;-67
2022/07/10 02:08:16;;;;;;;7.50;6.78;;;;;;;;;;10244732;28;20081;-67
2022/07/10 02:13:17;;;;;;;8.27;7.50;;;;;;;;;;10245272;28;20443;-67
2022/07/10 02:18:17;;;;;;;8.32;7.53;;;;;;;;;;10250995;28;20104;-68
2022/07/10 02:23:15;;;;;;;7.65;6.95;;;;;;;;;;10245804;28;20470;-66
2022/07/10 02:28:14;;;;;;;7.72;7.10;;;;;;;;;;10245107;28;20072;-68
2022/07/10 02:33:12;;;;;;;8.52;7.82;;;;;;;;;;10250963;28;20076;-67
2022/07/10 02:38:12;;;;;;;8.25;7.60;;;;;;;;;;10251459;28;20085;-67
2022/07/10 02:43:11;;;;;;;8.15;7.32;;;;;;;;;;10247737;28;20086;-68
2022/07/10 02:48:09;;;;;;;7.80;6.97;;;;;;;;;;10251108;28;20092;-67
2022/07/10 02:53:08;;;;;;;7.72;7.10;;;;;;;;;;10236474;28;20501;-67
2022/07/10 02:58:09;;;;;;;7.97;7.07;;;;;;;;;;10249391;28;20068;-67
2022/07/10 03:03:08;;;;;;;7.40;6.70;;;;;;;;;;10248092;28;20456;-68
2022/07/10 03:08:06;;;;;;;7.93;7.22;;;;;;;;;;10248324;28;20080;-67
2022/07/10 03:13:04;;;;;;;8.77;7.97;;;;;;;;;;10246989;28;20099;-68
2022/07/10 03:18:04;;;;;;;9.68;7.80;;;;;;;;;;10248089;28;20049;-67
2022/07/10 03:23:03;;;;;;;9.15;8.35;;;;;;;;;;10245056;28;20091;-67
2022/07/10 03:28:01;;;;;;;9.10;8.38;;;;;;;;;;10247027;28;20072;-67
2022/07/10 03:32:59;;;;;;;8.07;7.32;;;;;;;;;;10244198;28;20045;-67
2022/07/10 03:37:59;;;;;;;9.50;8.43;;;;;;;;;;10239886;28;20073;-67
2022/07/10 03:42:57;;;;;;;8.85;7.82;;;;;;;;;;10247299;28;20075;-68
2022/07/10 03:47:55;;;;;;;8.55;7.63;;;;;;;;;;10248445;28;20081;-67
2022/07/10 03:52:54;;;;;;;9.02;8.23;;;;;;;;;;10247765;28;20068;-68
2022/07/10 03:57:57;;;;;;;8.82;7.90;;;;;;;;;;10244197;28;20107;-67
2022/07/10 04:02:56;;;;;;;11.35;7.72;;;;;;;;;;10231598;28;20077;-67
2022/07/10 04:07:56;;;;;;;8.23;7.43;;;;;;;;;;10221942;28;20116;-67
2022/07/10 04:12:56;;;;;;;10.18;9.10;;;;;;;;;;10233510;28;20075;-67
2022/07/10 04:17:55;;;;;;;11.65;8.77;;;;;;;;;;10244141;28;20131;-67
2022/07/10 04:22:53;;;;;;;10.32;8.63;;;;;;;;;;10239599;28;20110;-66
2022/07/10 04:27:51;;;;;;;10.23;9.38;;;;;;;;;;10242286;28;20076;-67
2022/07/10 04:32:51;;;;;;;21.23;11.00;;;;;;;;;;10240149;28;20052;-67
2022/07/10 04:37:49;;;;;;;9.55;8.70;;;;;;;;;;10246399;28;20077;-68
2022/07/10 04:42:47;;;;;;;12.25;11.10;;;;;;;;;;10255464;28;20076;-67
2022/07/10 04:47:46;;;;;;;9.55;8.65;;;;;;;;;;10246026;28;20069;-67
2022/07/10 04:52:46;;;;;;;10.40;9.13;;;;;;;;;;10241830;28;20049;-67
2022/07/10 04:57:44;;;;;;;10.70;9.68;;;;;;;;;;10241104;28;20065;-67
2022/07/10 05:02:43;;;;;;;10.45;9.48;;;;;;;;;;10241854;28;20514;-66
2022/07/10 05:07:41;;;;;;;11.20;9.05;;;;;;;;;;10246746;28;20069;-67
2022/07/10 05:12:41;;;;;;;12.40;11.35;;;;;;;;;;10240830;28;20069;-67
2022/07/10 05:17:39;;;;;;;11.43;10.30;;;;;;;;;;10240661;28;20065;-67
2022/07/10 05:22:37;;;;;;;10.75;9.77;;;;;;;;;;10247484;28;20080;-67
2022/07/10 05:27:36;;;;;;;10.60;9.57;;;;;;;;;;10253581;28;20073;-66
2022/07/10 05:32:42;;;;;;;11.60;10.50;;;;;;;;;;10251846;28;20065;-67
2022/07/10 05:37:40;;;;;;;10.52;9.45;;;;;;;;;;10244750;28;20073;-68
2022/07/10 05:42:39;;;;;;;10.10;8.98;;;;;;;;;;10250141;28;20053;-66
2022/07/10 05:47:38;;;;;;;11.27;9.40;;;;;;;;;;10252165;28;20095;-68
2022/07/10 05:52:37;;;;;;;12.07;10.93;;;;;;;;;;10251473;28;20333;-66
2022/07/10 05:57:35;;;;;;;12.18;10.68;;;;;;;;;;10251176;28;20087;-65
2022/07/10 06:02:34;;;;;;;10.85;9.45;;;;;;;;;;10250211;28;20041;-66
2022/07/10 06:07:34;;;;;;;11.48;10.23;;;;;;;;;;10249579;28;20077;-66
2022/07/10 06:12:32;;;;;;;10.60;9.70;;;;;;;;;;10251269;28;20064;-66
2022/07/10 06:17:31;;;;;;;20.10;11.52;;;;;;;;;;10249937;28;20077;-68
2022/07/10 06:22:31;;;;;;;10.85;9.85;;;;;;;;;;10249807;28;20085;-67
2022/07/10 06:27:31;;;;;;;12.88;10.68;;;;;;;;;;10249740;28;20095;-66
2022/07/10 06:32:30;;;;;;;10.95;9.85;;;;;;;;;;10249804;28;20069;-66
2022/07/10 06:37:28;;;;;;;9.48;8.68;;;;;;;;;;10242403;28;20077;-67
2022/07/10 06:42:26;;;;;;;9.88;8.98;;;;;;;;;;10237012;28;20092;-67
2022/07/10 06:52:52;;;;;;;10.43;9.32;;;;;;;;;;10245057;28;20045;-67
2022/07/10 06:57:51;;;;;;;9.43;8.63;;;;;;;;;;10249181;28;20052;-66
2022/07/10 07:02:51;;;;;;;10.68;9.68;;;;;;;;;;10239154;28;20080;-67
2022/07/10 07:07:49;;;;;;;9.57;8.65;;;;;;;;;;10236309;28;20103;-67
2022/07/10 07:12:47;;;;;;;9.00;8.10;;;;;;;;;;10242426;28;20077;-66
2022/07/10 07:18:07;;;;;;;8.48;7.72;;;;;;;;;;10245246;28;20052;-67
2022/07/10 07:23:12;;;;;;;9.73;8.82;;;;;;;;;;10248853;28;20077;-67
2022/07/10 07:28:11;;;;;;;8.20;7.35;;;;;;;;;;10248433;28;20083;-66
2022/07/10 07:33:09;;;;;;;6.97;6.05;;;;;;;;;;10249015;28;20485;-66
2022/07/10 07:38:09;;;;;;;8.63;5.50;;;;;;;;;;10248136;28;20072;-67
2022/07/10 07:43:08;;;;;;;8.82;6.72;;;;;;;;;;10248449;28;20080;-67
2022/07/10 07:48:07;;;;;;;7.45;5.20;;;;;;;;;;10247827;28;20087;-67
2022/07/10 07:53:06;;;;;;;8.93;4.88;;;;;;;;;;10247394;28;20075;-66
2022/07/10 07:58:05;;;;;;;4.93;4.50;;;;;;;;;;10247091;28;20103;-66
2022/07/10 08:03:04;;;;;;;5.40;4.70;;;;;;;;;;10241949;28;20079;-66
2022/07/10 08:08:08;;;;;;;5.40;4.43;;;;;;;;;;10249308;28;20080;-67
2022/07/10 08:13:08;;;;;;;6.03;5.43;;;;;;;;;;10237034;28;20084;-66
2022/07/10 08:18:07;;;;;;;9.60;5.57;;;;;;;;;;10234258;28;20060;-68
2022/07/10 08:23:08;;;;;;;12.02;10.13;;;;;;;;;;10233443;28;20073;-67
2022/07/10 08:28:09;;;;;;;13.73;11.90;;;;;;;;;;10243617;28;20081;-66
2022/07/10 08:33:08;;;;;;;9.48;6.53;;;;;;;;;;10247261;28;20129;-68
2022/07/10 08:38:08;;;;;;;7.47;5.82;;;;;;;;;;10246850;28;20068;-67
2022/07/10 08:43:08;;;;;;;6.93;6.32;;;;;;;;;;10246564;28;20529;-67
2022/07/10 08:48:07;;;;;;;6.28;5.78;;;;;;;;;;10247507;28;20080;-67
2022/07/10 08:53:09;;;;;;;5.97;5.47;;;;;;;;;;10243304;28;20073;-67
2022/07/10 08:58:11;;;;;;;7.72;6.10;;;;;;;;;;10242887;28;20085;-66
2022/07/10 09:03:09;;;;;;;6.75;6.15;;;;;;;;;;10250325;28;20076;-67
2022/07/10 09:08:22;;;;;;;6.28;5.78;;;;;;;;;;10240119;28;20076;-67
2022/07/10 09:13:24;;;;;;;8.40;4.95;;;;;;;;;;10246112;28;20079;-67
2022/07/10 09:18:25;;;;;;;7.03;4.85;;;;;;;;;;10246565;28;20041;-67
2022/07/10 09:23:25;;;;;;;6.75;6.15;;;;;;;;;;10238711;28;20084;-67
2022/07/10 09:28:32;;;;;;;6.75;4.35;;;;;;;;;;10251735;28;20087;-68
2022/07/10 09:33:31;;;;;;;3.78;3.47;;;;;;;;;;10249388;28;20473;-68
2022/07/10 09:38:48;;;;;;;6.18;4.10;;;;;;;;;;10252141;28;20494;-68
2022/07/10 09:43:49;;;;;;;11.50;6.60;;;;;;;;;;10252006;28;20528;-69
2022/07/10 09:48:49;;;;;;;5.13;4.63;;;;;;;;;;10252162;28;20623;-67
2022/07/10 09:53:47;;;;;;;9.32;4.63;;;;;;;;;;10238821;28;20077;-67
2022/07/10 09:58:46;;;;;;;4.45;4.05;;;;;;;;;;10238948;28;20042;-67
2022/07/10 10:03:48;;;;;;;5.22;4.50;;;;;;;;;;10251948;28;20087;-68
2022/07/10 10:08:50;;;;;;;6.47;5.22;;;;;;;;;;10252215;28;20073;-67
2022/07/10 10:13:49;;;;;;;8.13;5.63;;;;;;;;;;10251141;28;20080;-67
2022/07/10 10:24:07;;;;;;;9.63;8.73;;;;;;;;;;10236750;28;20427;-68
2022/07/10 10:29:09;;;;;;;10.40;8.65;;;;;;;;;;10237579;28;20291;-68
2022/07/10 10:34:09;;;;;;;9.95;8.05;;;;;;;;;;10252112;28;20107;-67
2022/07/10 10:39:12;;;;;;;15.02;7.57;;;;;;;;;;10244501;28;20065;-66
2022/07/10 10:44:20;;;;;;;5.97;5.47;;;;;;;;;;10250237;28;20507;-67
2022/07/10 10:49:20;;;;;;;4.40;3.80;;;;;;;;;;10250726;28;20111;-67
2022/07/10 10:54:19;;;;;;;8.20;7.50;;;;;;;;;;10249551;28;20049;-67
2022/07/10 10:59:32;;;;;;;11.00;7.82;;;;;;;;;;10249156;28;20509;-67
2022/07/10 11:04:33;;;;;;;8.45;6.80;;;;;;;;;;10251169;28;20080;-67
2022/07/10 11:09:32;;;;;;;7.75;5.63;;;;;;;;;;10250745;28;20493;-68
2022/07/10 11:14:31;;;;;;;6.20;5.60;;;;;;;;;;10236271;28;20049;-68
2022/07/10 11:19:30;;;;;;;8.23;5.88;;;;;;;;;;10235704;28;20167;-68
2022/07/10 11:24:41;;;;;;;7.25;5.35;;;;;;;;;;10228979;28;20060;-67
2022/07/10 11:29:39;;;;;;;6.63;4.47;;;;;;;;;;10244265;28;20080;-67
2022/07/10 11:34:37;;;;;;;8.38;4.40;;;;;;;;;;10247337;28;20427;-67
2022/07/10 11:39:37;;;;;;;6.40;3.63;;;;;;;;;;10248742;28;20077;-66
2022/07/10 11:44:36;;;;;;;4.75;4.03;;;;;;;;;;10248209;28;20068;-67
2022/07/10 11:49:35;;;;;;;3.53;3.20;;;;;;;;;;10235045;28;20107;-68
2022/07/10 11:54:33;;;;;;;4.43;3.17;;;;;;;;;;10229298;28;20069;-67
2022/07/10 11:59:33;;;;;;;10.00;3.97;;;;;;;;;;10246919;28;20081;-67
2022/07/10 12:04:32;;;;;;;6.45;3.50;;;;;;;;;;10238534;28;20080;-66
2022/07/10 12:09:30;;;;;;;5.07;3.22;;;;;;;;;;10242347;28;20119;-65
2022/07/10 12:14:29;;;;;;;5.70;3.28;;;;;;;;;;10240121;28;20077;-67
2022/07/10 12:19:30;;;;;;;4.95;3.70;;;;;;;;;;10244868;28;20337;-66
2022/07/10 12:24:29;;;;;;;3.83;2.97;;;;;;;;;;10239454;28;20534;-67
2022/07/10 12:29:28;;;;;;;5.45;3.88;;;;;;;;;;10240211;28;20551;-67
2022/07/10 12:34:35;;;;;;;7.75;3.60;;;;;;;;;;10237033;28;20052;-66
2022/07/10 12:39:36;;;;;;;3.63;2.63;;;;;;;;;;10248641;28;20069;-66
2022/07/10 12:44:36;;;;;;;3.88;2.63;;;;;;;;;;10252762;28;20056;-67
2022/07/10 12:49:49;;;;;;;3.33;2.97;;;;;;;;;;10254037;28;20141;-67
2022/07/10 12:55:05;;;;;;;2.57;2.37;;;;;;;;;;10253544;28;20052;-67
2022/07/10 13:00:13;;;;;;;3.17;2.90;;;;;;;;;;10252793;28;20077;-68
2022/07/10 13:05:11;;;;;;;8.18;3.15;;;;;;;;;;10251277;28;20072;-68
2022/07/10 13:10:11;;;;;;;7.15;2.85;;;;;;;;;;10253638;28;20901;-69
2022/07/10 13:15:10;;;;;;;3.83;3.03;;;;;;;;;;10253383;28;20690;-69
2022/07/10 13:20:12;;;;;;;3.45;2.95;;;;;;;;;;10252763;28;20388;-68
2022/07/10 13:25:12;;;;;;;7.53;3.35;;;;;;;;;;10252980;28;20167;-65
2022/07/10 13:30:11;;;;;;;4.70;3.70;;;;;;;;;;10252861;28;20076;-68
2022/07/10 13:35:12;;;;;;;6.57;3.22;;;;;;;;;;10234831;28;20081;-68
2022/07/10 13:40:13;;;;;;;3.65;3.00;;;;;;;;;;10239049;28;20045;-67
2022/07/10 13:45:11;;;;;;;4.35;3.92;;;;;;;;;;10239531;28;20053;-67
2022/07/10 13:50:09;;;;;;;6.97;3.45;;;;;;;;;;10252662;28;20093;-67
2022/07/10 13:55:08;;;;;;;3.58;3.05;;;;;;;;;;10250426;28;20077;-67
2022/07/10 14:00:09;;;;;;;6.05;2.85;;;;;;;;;;10252357;28;20052;-67
2022/07/10 14:05:10;;;;;;;4.43;2.97;;;;;;;;;;10252694;28;20539;-67
2022/07/10 14:10:10;;;;;;;7.15;4.07;;;;;;;;;;10252268;28;20115;-67
2022/07/10 14:15:10;;;;;;;5.90;3.63;;;;;;;;;;10251742;28;20069;-68
2022/07/10 14:20:09;;;;;;;6.57;3.42;;;;;;;;;;10252091;28;20080;-68
2022/07/10 14:25:09;;;;;;;5.10;3.95;;;;;;;;;;10250852;28;20491;-67
2022/07/10 14:30:08;;;;;;;6.32;4.00;;;;;;;;;;10252151;28;20073;-67
2022/07/10 14:35:09;;;;;;;3.78;3.17;;;;;;;;;;10251548;28;20091;-67
2022/07/10 14:40:08;;;;;;;7.47;5.07;;;;;;;;;;10251148;28;20517;-67
2022/07/10 14:45:07;;;;;;;8.52;6.72;;;;;;;;;;10246180;28;20045;-67
2022/07/10 14:50:26;;;;;;;8.55;3.88;;;;;;;;;;10250252;28;20157;-67
2022/07/10 14:55:25;;;;;;;6.10;4.03;;;;;;;;;;10237098;28;20084;-67
2022/07/10 15:00:23;;;;;;;5.32;3.97;;;;;;;;;;10248224;28;20081;-67
2022/07/10 15:05:22;;;;;;;11.05;3.97;;;;;;;;;;10248817;28;20076;-67
2022/07/10 15:10:21;;;;;;;7.05;4.15;;;;;;;;;;10234418;28;20081;-67
2022/07/10 15:15:20;;;;;;;6.65;4.63;;;;;;;;;;10250023;28;20069;-68
2022/07/10 15:20:19;;;;;;;4.85;3.80;;;;;;;;;;10250255;28;20084;-67
2022/07/10 15:25:17;;;;;;;7.47;3.65;;;;;;;;;;10249204;28;20120;-67
2022/07/10 15:30:17;;;;;;;5.15;3.53;;;;;;;;;;10247491;28;20080;-66
2022/07/10 15:35:15;;;;;;;4.93;4.03;;;;;;;;;;10242653;28;20065;-66
2022/07/10 15:40:14;;;;;;;10.45;6.07;;;;;;;;;;10247695;28;20479;-67
2022/07/10 15:45:12;;;;;;;7.57;3.72;;;;;;;;;;10241394;28;20077;-65
2022/07/10 15:50:13;;;;;;;6.35;3.35;;;;;;;;;;10246292;28;20133;-63
2022/07/10 15:55:11;;;;;;;6.78;3.90;;;;;;;;;;10248212;28;20089;-64
2022/07/10 16:00:10;;;;;;;6.53;4.93;;;;;;;;;;10247105;28;20104;-63
2022/07/10 16:05:09;;;;;;;11.02;4.15;;;;;;;;;;10244672;28;20081;-64
2022/07/10 16:10:09;;;;;;;6.70;5.57;;;;;;;;;;10244319;28;20496;-64
2022/07/10 16:15:08;;;;;;;8.02;6.63;;;;;;;;;;10234216;28;20056;-64
2022/07/10 16:20:14;;;;;;;9.27;5.50;;;;;;;;;;10234265;28;20069;-64
2022/07/10 16:30:35;;;;;;;19.95;7.90;;;;;;;;;;10228079;28;20108;-64
2022/07/10 16:35:34;;;;;;;5.95;4.32;;;;;;;;;;10242977;28;20061;-64
2022/07/10 16:40:33;;;;;;;6.18;5.22;;;;;;;;;;10237124;28;20069;-64
2022/07/10 16:45:32;;;;;;;5.88;3.58;;;;;;;;;;10238958;28;20057;-64
2022/07/10 16:50:31;;;;;;;8.68;3.97;;;;;;;;;;10248027;28;20100;-64
2022/07/10 16:55:30;;;;;;;7.53;4.30;;;;;;;;;;10246317;28;20137;-64
2022/07/10 17:00:29;;;;;;;8.35;4.53;;;;;;;;;;10246994;28;20512;-64
2022/07/10 17:05:28;;;;;;;4.18;3.75;;;;;;;;;;10249069;28;20050;-65
2022/07/10 17:10:26;;;;;;;6.97;4.50;;;;;;;;;;10239882;28;20088;-65
2022/07/10 17:15:25;;;;;;;6.00;4.07;;;;;;;;;;10245836;28;20077;-64
2022/07/10 17:20:25;;;;;;;12.80;6.15;;;;;;;;;;10246323;28;20100;-65
2022/07/10 17:25:23;;;;;;;5.30;4.80;;;;;;;;;;10246944;28;20464;-64
2022/07/10 17:30:22;;;;;;;5.10;3.30;;;;;;;;;;10254884;28;20088;-63
2022/07/10 17:35:20;;;;;;;8.07;3.95;;;;;;;;;;10253276;28;20076;-64
2022/07/10 17:40:20;;;;;;;5.80;4.60;;;;;;;;;;10253091;28;20077;-63
2022/07/10 17:45:19;;;;;;;6.05;4.50;;;;;;;;;;10252491;28;20061;-65
2022/07/10 17:50:18;;;;;;;6.38;3.47;;;;;;;;;;10252483;28;20073;-64
2022/07/10 17:55:16;;;;;;;4.70;3.80;;;;;;;;;;10237896;28;20514;-65
2022/07/10 18:00:16;;;;;;;6.78;4.13;;;;;;;;;;10239076;28;20049;-65
2022/07/10 18:05:14;;;;;;;4.65;3.95;;;;;;;;;;10238818;28;20072;-65
2022/07/10 18:10:14;;;;;;;4.75;4.25;;;;;;;;;;10250197;28;20069;-63
2022/07/10 18:15:13;;;;;;;8.18;4.15;;;;;;;;;;10238416;28;20065;-64
2022/07/10 18:20:15;;;;;;;10.05;4.07;;;;;;;;;;10238374;28;20057;-64
2022/07/10 18:25:14;;;;;;;8.27;4.45;;;;;;;;;;10237951;28;20065;-64
2022/07/10 18:30:13;;;;;;;8.15;4.95;;;;;;;;;;10255581;28;20045;-63
2022/07/10 18:35:11;;;;;;;6.40;5.10;;;;;;;;;;10237605;28;20153;-62
2022/07/10 18:40:11;;;;;;;6.03;4.43;;;;;;;;;;10236093;28;20072;-63
2022/07/10 18:45:10;;;;;;;5.15;4.70;;;;;;;;;;10253319;28;20076;-63
2022/07/10 18:50:09;;;;;;;6.35;5.00;;;;;;;;;;10242311;28;20076;-64
2022/07/10 18:55:09;;;;;;;4.38;3.85;;;;;;;;;;10240526;28;20081;-64
2022/07/10 19:00:10;;;;;;;6.97;4.53;;;;;;;;;;10246348;28;20103;-65
2022/07/10 19:05:08;;;;;;;5.95;4.32;;;;;;;;;;10251093;28;20088;-64
2022/07/10 19:10:07;;;;;;;5.00;4.53;;;;;;;;;;10248199;28;20073;-64
2022/07/10 19:15:06;;;;;;;5.35;4.85;;;;;;;;;;10231316;28;20077;-64
2022/07/10 19:20:11;;;;;;;5.63;4.53;;;;;;;;;;10248381;28;20053;-65
2022/07/10 19:25:10;;;;;;;5.25;4.40;;;;;;;;;;10248133;28;20353;-65
2022/07/10 19:30:12;;;;;;;5.97;5.40;;;;;;;;;;10248333;28;20053;-64
2022/07/10 19:35:12;;;;;;;10.35;4.63;;;;;;;;;;10247917;28;20088;-65
2022/07/10 19:40:11;;;;;;;7.38;4.60;;;;;;;;;;10236057;28;20049;-65
2022/07/10 19:45:09;;;;;;;5.63;4.20;;;;;;;;;;10228951;28;20060;-65
2022/07/10 19:50:08;;;;;;;5.28;4.30;;;;;;;;;;10235063;28;20103;-63
2022/07/10 19:55:09;;;;;;;4.78;4.28;;;;;;;;;;10247326;28;20088;-64
2022/07/10 20:00:09;;;;;;;6.47;4.75;;;;;;;;;;10247736;28;20049;-65
2022/07/10 20:05:10;;;;;;;4.68;4.25;;;;;;;;;;10244059;28;20521;-64
2022/07/10 20:10:11;;;;;;;9.23;5.00;;;;;;;;;;10247918;28;20486;-64
2022/07/10 20:15:10;;;;;;;6.30;5.32;;;;;;;;;;10246969;28;20085;-64
2022/07/10 20:20:09;;;;;;;6.75;4.65;;;;;;;;;;10247582;28;20076;-65
2022/07/10 20:25:08;;;;;;;6.15;4.15;;;;;;;;;;10247190;28;20128;-63
2022/07/10 20:30:11;;;;;;;5.90;4.32;;;;;;;;;;10246150;28;20095;-64
2022/07/10 20:35:09;;;;;;;7.78;4.28;;;;;;;;;;10242009;28;20069;-64
2022/07/10 20:40:09;;;;;;;7.05;4.18;;;;;;;;;;10246253;28;20069;-64
2022/07/10 20:45:17;;;;;;;6.40;3.90;;;;;;;;;;10245809;28;20084;-63
2022/07/10 20:50:17;;;;;;;3.63;3.20;;;;;;;;;;10245624;28;20080;-65
2022/07/10 20:55:16;;;;;;;4.32;3.15;;;;;;;;;;10240586;28;20080;-64
2022/07/10 21:00:16;;;;;;;10.45;3.95;;;;;;;;;;10240717;28;20499;-63
2022/07/10 21:05:15;;;;;;;4.10;3.10;;;;;;;;;;10247561;28;20072;-64
2022/07/10 21:10:40;;;;;;;4.82;3.35;;;;;;;;;;10247016;28;20065;-64
2022/07/10 21:15:33;;;;;;;3.67;2.47;;;;;;;;;;10253382;28;20069;-64
2022/07/10 21:20:31;;;;;;;3.28;2.85;;;;;;;;;;10253663;28;20057;-64
2022/07/10 21:25:30;;;;;;;2.90;2.60;;;;;;;;;;10252960;28;20092;-64
2022/07/10 21:30:28;;;;;;;2.53;2.20;;;;;;;;;;10252538;28;20506;-64
2022/07/10 21:35:28;;;;;;;2.60;2.40;;;;;;;;;;10247755;28;20077;-64
2022/07/10 21:40:27;;;;;;;2.45;2.25;;;;;;;;;;10252473;28;20080;-64
2022/07/10 21:45:25;;;;;;;8.75;2.83;;;;;;;;;;10251994;28;20419;-64
2022/07/10 21:50:24;;;;;;;2.72;2.38;;;;;;;;;;10251260;28;20037;-64
2022/07/10 21:55:24;;;;;;;5.80;3.13;;;;;;;;;;10248245;28;20089;-64
2022/07/10 22:00:22;;;;;;;6.68;2.95;;;;;;;;;;10252089;28;20239;-64
2022/07/10 22:05:21;;;;;;;4.85;3.03;;;;;;;;;;10249217;28;20077;-64
2022/07/10 22:10:21;;;;;;;3.30;2.95;;;;;;;;;;10236950;28;20049;-64
2022/07/10 22:15:21;;;;;;;3.75;2.85;;;;;;;;;;10238616;28;20073;-64
2022/07/10 22:20:19;;;;;;;5.25;3.00;;;;;;;;;;10237815;28;20046;-64
2022/07/10 22:25:19;;;;;;;5.75;2.83;;;;;;;;;;10248481;28;20084;-64
2022/07/10 22:31:16;;;;;;;3.30;2.55;;;;;;;;;;10250703;28;20427;-64
2022/07/10 22:35:38;;;;;;;3.20;2.90;;;;;;;;;;10240735;28;20084;-63
2022/07/10 22:40:36;;;;;;;5.20;3.35;;;;;;;;;;10250871;28;20049;-64
2022/07/10 22:45:35;;;;;;;5.45;2.85;;;;;;;;;;10250878;28;20087;-64
2022/07/10 22:50:33;;;;;;;4.00;2.92;;;;;;;;;;10249239;28;20072;-64
2022/07/10 22:55:34;;;;;;;3.47;3.17;;;;;;;;;;10249185;28;20084;-64
2022/07/10 23:00:32;;;;;;;6.38;3.17;;;;;;;;;;10249319;28;20483;-64
2022/07/10 23:05:30;;;;;;;4.65;3.15;;;;;;;;;;10247053;28;20466;-63
2022/07/10 23:10:29;;;;;;;4.18;3.10;;;;;;;;;;10242077;28;20069;-64
2022/07/10 23:15:29;;;;;;;3.72;3.30;;;;;;;;;;10248660;28;20486;-64
2022/07/10 23:20:27;;;;;;;3.83;3.42;;;;;;;;;;10238146;28;20076;-63
2022/07/10 23:25:26;;;;;;;4.80;3.40;;;;;;;;;;10247607;28;20103;-63
2022/07/10 23:30:24;;;;;;;3.83;3.42;;;;;;;;;;10248110;28;20064;-64
2022/07/10 23:35:24;;;;;;;3.97;3.38;;;;;;;;;;10247418;28;20499;-63
2022/07/10 23:40:25;;;;;;;5.13;3.47;;;;;;;;;;10247924;28;20126;-64
2022/07/10 23:45:23;;;;;;;3.92;3.53;;;;;;;;;;10248031;28;20050;-64
2022/07/10 23:50:22;;;;;;;5.93;3.95;;;;;;;;;;10247718;28;20103;-63
2022/07/10 23:55:22;;;;;;;4.85;3.58;;;;;;;;;;10247083;28;20095;-64
